BUCHANAN DAM (BUC)

Elevation: 450' · CHOWCHILLA R basin · Operator: US Army Corps of Engineers

Provisional data, subject to change.
Query executed Saturday at 8:14:31   clock

Select a sensor type for a plot of data.
Note: Reservoir Flows are daily averages.

Earlier

Date RES ELE    STORAGE    RES CHG    TOC STO    ABV TOC    OUTFLOW    INFLOW    PPT INC    TEMP MN    TEMP MX   
 FEET   AF   AF   AF   AF   CFS   CFS   INCHES   DEG F   DEG F  
06/05/2015 469.23 11781 14 150000 -138219 0 11 -- 14 31
06/06/2015 470.09 12240 -10 150000 -138229 0 169 -- 14 32
06/07/2015 469.33 11834 -16 150000 -138245 0 21 -- -18 36
06/08/2015 469.39 11866 -16 150000 -138261 0 21 -- -18 41
06/09/2015 469.45 11897 -42 150000 -136750 0 19 -- 22 35
06/10/2015 469.48 11913 164 150000 -138087 0 12 -- 20 31
06/11/2015 469.46 11903 -10 150000 -138097 0 -0 -- 18 34
06/12/2015 469.46 11903 0 150000 -138097 0 5 -- 22 38
06/13/2015 469.43 11887 -16 150000 -138113 0 -2 -- 22 41
06/14/2015 469.40 11871 -16 150000 -138129 0 -3 -- 18 38
06/15/2015 469.38 11860 -11 150000 -138140 0 -0 -- 16 37
06/16/2015 469.35 11844 -16 150000 -138156 0 -3 -- 14 38
06/17/2015 469.32 11829 -15 150000 -138171 0 -2 -- 16 39
06/18/2015 469.29 11813 -16 150000 -138187 0 -3 -- 17 39
06/19/2015 469.26 11797 -16 150000 -138203 0 -3 -- 15 38
06/20/2015 469.24 11786 -11 150000 -138214 0 -0 -- 16 41
06/21/2015 469.21 11771 -15 150000 -138229 0 -2 -- 18 37
06/22/2015 469.18 11755 -21 150000 -138250 0 -3 -- 13 36
06/23/2015 469.15 11739 -11 150000 -138261 0 -3 -- 14 37
06/24/2015 469.13 11729 -10 150000 -138271 0 -0 -- 17 38
06/25/2015 469.11 11718 -11 150000 -138282 0 -0 -- 20 41
06/26/2015 469.09 11708 -10 150000 -138292 0 0 -- 21 41
06/27/2015 469.07 11697 -11 150000 -138303 0 -1 -- 21 39
06/28/2015 469.05 11687 -10 150000 -138313 0 -1 -- 22 37
06/29/2015 469.02 11671 -16 150000 -138329 0 -3 -- 20 39
06/30/2015 469.00 11660 -11 150000 -138340 0 0 -- 23 43
07/01/2015 468.98 11650 -10 150000 -138350 0 -1 -- 25 38
07/02/2015 468.96 11639 -11 150000 -138361 0 -1 -- 25 38
07/03/2015 468.94 11629 -10 150000 -138371 415 415 -- 22 40
07/04/2015 -- -- -- -- -- -- -- -- -- --

Later | Latest

Warning! This data is preliminary and subject to revision.

Show BUC Map | Plot BUC Data | 1 Month BUC Data | Real-Time BUC Data | BUC Info